Terminal Aerodrome Forecast
Issued by NWS Dallas/Fort Worth, TX

Home | Current Version | Previous Version | Text Only | Print | Product List | Glossary On
Versions: 1 2 3 4 5 6 7 8 9 10 11 12 13 14 15 16 17 18 19 20 21 22 23 24 25 26 27 28 29 30 31 32 33 34
431
FTUS44 KFWD 181512 AAB
TAFACT
TAF AMD
KACT 181512Z 1815/1912 34006KT 5SM -RA BR VCTS OVC007CB
      TEMPO 1815/1818 2SM -DZ BKN004
     FM181800 36007KT 4SM BR VCSH OVC006
     FM190800 24005KT 5SM BR OVC006=

USA.gov is the U.S. government's official web portal to all federal, state and local government web resources and services.